createdAt,value
2022-12-03T00:00:12.494Z,6.93
2022-12-03T00:02:40.006Z,6.88
2022-12-03T00:05:06.876Z,6.57
2022-12-03T00:07:33.795Z,6.84
2022-12-03T00:10:00.650Z,7.36
2022-12-03T00:12:27.318Z,7.18
2022-12-03T00:14:54.098Z,7.08
2022-12-03T00:17:20.966Z,6.66
2022-12-03T00:19:47.642Z,6.29
2022-12-03T00:22:14.307Z,6.92
2022-12-03T00:24:40.947Z,7.16
2022-12-03T00:27:07.939Z,7.50
2022-12-03T00:29:34.650Z,7.37
2022-12-03T00:32:01.292Z,7.45
2022-12-03T00:34:27.953Z,6.98
2022-12-03T00:36:54.688Z,7.35
2022-12-03T00:39:21.283Z,6.28
2022-12-03T00:41:47.911Z,6.92
2022-12-03T00:44:14.583Z,6.87
2022-12-03T00:46:41.291Z,6.80
2022-12-03T00:49:08.035Z,6.16
2022-12-03T00:51:35.817Z,6.93
2022-12-03T00:54:02.480Z,6.98
2022-12-03T00:56:29.198Z,6.90
2022-12-03T00:58:55.806Z,6.84
2022-12-03T01:01:22.479Z,6.77
2022-12-03T01:03:49.147Z,6.88
2022-12-03T01:06:15.805Z,6.92
2022-12-03T01:08:42.488Z,6.40
2022-12-03T01:11:29.143Z,6.71
2022-12-03T01:13:55.805Z,6.25
2022-12-03T01:16:22.537Z,6.39
2022-12-03T01:18:52.291Z,5.54
2022-12-03T01:21:19.713Z,6.43
2022-12-03T01:23:46.392Z,6.61
2022-12-03T01:26:13.227Z,6.58
2022-12-03T01:28:41.838Z,6.16
2022-12-03T01:31:27.994Z,6.66
2022-12-03T01:33:55.435Z,6.53
2022-12-03T01:36:22.298Z,6.51
2022-12-03T01:38:49.121Z,6.11
2022-12-03T01:41:18.513Z,6.24
2022-12-03T01:43:47.581Z,5.88
2022-12-03T01:46:18.881Z,5.63
2022-12-03T01:48:47.701Z,5.06
2022-12-03T01:51:15.083Z,5.94
2022-12-03T01:53:43.778Z,5.96
2022-12-03T01:56:15.850Z,5.81
2022-12-03T01:58:43.528Z,6.28
2022-12-03T02:01:16.912Z,6.69
2022-12-03T02:03:44.842Z,6.90
2022-12-03T02:06:22.861Z,5.86
2022-12-03T02:08:49.723Z,6.20
2022-12-03T02:11:25.502Z,6.26
2022-12-03T02:13:56.844Z,5.73
2022-12-03T02:16:23.835Z,5.91
2022-12-03T02:18:50.586Z,6.15
2022-12-03T02:21:53.671Z,4.98
2022-12-03T02:24:55.492Z,5.89
2022-12-03T02:27:23.366Z,5.91
2022-12-03T02:29:50.116Z,6.28
2022-12-03T02:32:17.024Z,5.94
2022-12-03T02:34:45.425Z,6.34
2022-12-03T02:37:36.605Z,6.15
2022-12-03T02:40:07.813Z,6.26
2022-12-03T02:42:36.074Z,6.59
2022-12-03T02:45:11.969Z,5.54
2022-12-03T02:47:43.262Z,6.03
2022-12-03T02:50:12.463Z,6.15
2022-12-03T02:52:40.693Z,5.33
2022-12-03T02:55:09.087Z,5.07
2022-12-03T02:57:38.727Z,5.65
2022-12-03T03:00:07.111Z,5.58
2022-12-03T03:02:34.726Z,4.98
2022-12-03T03:05:01.627Z,5.46
2022-12-03T03:07:28.484Z,5.56
2022-12-03T03:09:55.474Z,5.07
2022-12-03T03:12:22.139Z,5.97
2022-12-03T03:14:48.776Z,5.73
2022-12-03T03:17:15.524Z,5.57
2022-12-03T03:19:42.437Z,5.25
2022-12-03T03:22:12.297Z,5.26
2022-12-03T03:24:39.512Z,5.67
2022-12-03T03:27:06.465Z,4.95
2022-12-03T03:29:33.959Z,5.71
2022-12-03T03:32:01.951Z,5.57
2022-12-03T03:34:32.153Z,6.14
2022-12-03T03:36:58.909Z,5.68
2022-12-03T03:39:25.652Z,5.76
2022-12-03T03:41:52.464Z,5.33
2022-12-03T03:44:19.250Z,5.58
2022-12-03T03:46:45.994Z,5.84
2022-12-03T03:49:13.200Z,5.60
2022-12-03T03:51:39.945Z,5.83
2022-12-03T03:54:07.310Z,5.60
2022-12-03T03:56:34.541Z,5.19
2022-12-03T03:59:02.079Z,5.20
2022-12-03T04:01:29.808Z,5.57
2022-12-03T04:03:57.415Z,5.51
2022-12-03T04:06:24.153Z,5.00
2022-12-03T04:08:50.766Z,5.41
2022-12-03T04:11:36.224Z,4.95
2022-12-03T04:14:03.368Z,5.26
2022-12-03T04:16:30.087Z,5.69
2022-12-03T04:18:56.749Z,4.98
2022-12-03T04:21:42.981Z,4.84
2022-12-03T04:24:11.197Z,6.10
2022-12-03T04:26:56.443Z,5.21
2022-12-03T04:29:23.513Z,5.00
2022-12-03T04:32:08.916Z,4.86
2022-12-03T04:34:54.485Z,5.68
2022-12-03T04:37:21.686Z,5.04
2022-12-03T04:39:48.379Z,5.38
2022-12-03T04:42:15.143Z,5.81
2022-12-03T04:44:41.855Z,5.84
2022-12-03T04:47:20.939Z,4.52
2022-12-03T04:49:50.156Z,5.01
2022-12-03T04:52:19.511Z,5.34
2022-12-03T04:54:46.419Z,5.54
2022-12-03T04:57:13.208Z,5.07
2022-12-03T04:59:40.295Z,5.23
2022-12-03T05:02:07.572Z,5.30
2022-12-03T05:04:34.762Z,5.13
2022-12-03T05:07:01.888Z,4.55
2022-12-03T05:09:28.498Z,4.71
2022-12-03T05:11:55.116Z,5.04
2022-12-03T05:14:21.796Z,4.98
2022-12-03T05:16:48.667Z,5.07
2022-12-03T05:19:15.342Z,5.48
2022-12-03T05:21:41.978Z,5.63
2022-12-03T05:24:08.695Z,5.85
2022-12-03T05:26:35.443Z,5.70
2022-12-03T05:29:02.207Z,5.57
2022-12-03T05:31:28.982Z,5.78
2022-12-03T05:33:55.638Z,5.47
2022-12-03T05:36:22.305Z,5.55
2022-12-03T05:38:48.950Z,5.74
2022-12-03T05:41:33.832Z,4.87
2022-12-03T05:44:00.552Z,4.91
2022-12-03T05:46:27.287Z,5.70
2022-12-03T05:48:54.953Z,5.62
2022-12-03T05:51:21.601Z,5.55
2022-12-03T05:53:48.217Z,5.55
2022-12-03T05:56:14.820Z,5.43
2022-12-03T05:58:41.473Z,5.03
2022-12-03T06:01:08.413Z,5.29
2022-12-03T06:03:36.353Z,4.87
2022-12-03T06:06:03.073Z,5.64
2022-12-03T06:08:29.696Z,5.65
2022-12-03T06:10:56.283Z,5.62
2022-12-03T06:13:22.904Z,5.70
2022-12-03T06:15:49.583Z,5.70
2022-12-03T06:18:16.243Z,5.72
2022-12-03T06:20:42.906Z,5.07
2022-12-03T06:23:09.625Z,5.14
2022-12-03T06:25:36.283Z,5.51
2022-12-03T06:28:02.989Z,4.92
2022-12-03T06:30:29.649Z,5.30
2022-12-03T06:32:59.612Z,5.58
2022-12-03T06:35:26.267Z,5.35
2022-12-03T06:37:52.887Z,5.56
2022-12-03T06:40:19.878Z,5.67
2022-12-03T06:42:46.552Z,5.45
2022-12-03T06:45:13.238Z,5.61
2022-12-03T06:47:39.931Z,5.17
2022-12-03T06:50:07.741Z,5.11
2022-12-03T06:52:35.288Z,5.97
2022-12-03T06:55:02.009Z,5.67
2022-12-03T06:57:28.695Z,5.88
2022-12-03T06:59:55.827Z,5.52
2022-12-03T07:02:23.062Z,5.23
2022-12-03T07:04:49.875Z,5.12
2022-12-03T07:07:16.538Z,4.57
2022-12-03T07:09:43.540Z,4.97
2022-12-03T07:12:10.281Z,5.40
2022-12-03T07:14:37.708Z,5.09
2022-12-03T07:17:04.352Z,5.19
2022-12-03T07:19:33.024Z,4.86
2022-12-03T07:22:00.198Z,5.24
2022-12-03T07:24:26.853Z,5.47
2022-12-03T07:26:53.548Z,5.29
2022-12-03T07:29:20.366Z,5.33
2022-12-03T07:31:47.081Z,5.10
2022-12-03T07:34:13.820Z,5.25
2022-12-03T07:36:40.529Z,5.40
2022-12-03T07:39:07.653Z,5.46
2022-12-03T07:41:34.880Z,5.47
2022-12-03T07:44:01.560Z,5.40
2022-12-03T07:46:28.298Z,5.31
2022-12-03T07:48:55.029Z,5.18
2022-12-03T07:51:21.683Z,5.23
2022-12-03T07:53:48.455Z,5.31
2022-12-03T07:56:15.124Z,5.44
2022-12-03T07:58:41.755Z,5.67
2022-12-03T08:01:08.526Z,5.45
2022-12-03T08:03:35.323Z,5.29
2022-12-03T08:06:01.950Z,5.01
2022-12-03T08:08:28.603Z,5.03
2022-12-03T08:10:55.290Z,4.98
2022-12-03T08:13:21.990Z,5.02
2022-12-03T08:15:48.709Z,5.73
2022-12-03T08:18:19.465Z,5.76
2022-12-03T08:20:50.969Z,5.43
2022-12-03T08:23:25.392Z,5.50
2022-12-03T08:25:53.128Z,5.93
2022-12-03T08:28:25.705Z,6.08
2022-12-03T08:31:01.592Z,5.40
2022-12-03T08:33:35.373Z,5.40
2022-12-03T08:36:12.284Z,6.18
2022-12-03T08:38:40.944Z,6.12
2022-12-03T08:41:15.812Z,5.95
2022-12-03T08:43:43.866Z,6.15
2022-12-03T08:46:18.957Z,6.33
2022-12-03T08:48:49.194Z,6.30
2022-12-03T08:51:25.039Z,6.32
2022-12-03T08:53:59.761Z,6.02
2022-12-03T08:56:30.555Z,6.23
2022-12-03T08:59:23.757Z,6.09
2022-12-03T09:01:51.597Z,6.21
2022-12-03T09:04:36.037Z,6.02
2022-12-03T09:07:02.835Z,6.36
2022-12-03T09:09:29.512Z,6.47
2022-12-03T09:11:56.575Z,6.21
2022-12-03T09:14:23.621Z,6.40
2022-12-03T09:16:55.392Z,6.68
2022-12-03T09:19:24.189Z,6.31
2022-12-03T09:21:51.117Z,6.61
2022-12-03T09:24:17.847Z,6.59
2022-12-03T09:26:44.542Z,5.88
2022-12-03T09:29:12.559Z,6.02
2022-12-03T09:31:39.654Z,6.06
2022-12-03T09:34:07.011Z,5.83
2022-12-03T09:36:34.013Z,6.33
2022-12-03T09:39:00.746Z,6.27
2022-12-03T09:41:27.654Z,6.43
2022-12-03T09:44:15.792Z,6.25
2022-12-03T09:46:42.689Z,6.37
2022-12-03T09:49:15.991Z,6.06
2022-12-03T09:51:44.192Z,6.67
2022-12-03T09:54:22.910Z,6.73
2022-12-03T09:56:49.765Z,5.83
2022-12-03T09:59:16.833Z,5.98
2022-12-03T10:01:44.412Z,6.32
2022-12-03T10:04:11.854Z,6.16
2022-12-03T10:06:45.328Z,6.32
2022-12-03T10:09:17.168Z,5.76
2022-12-03T10:11:43.973Z,6.14
2022-12-03T10:14:14.214Z,5.51
2022-12-03T10:16:41.775Z,6.10
2022-12-03T10:19:25.394Z,6.21
2022-12-03T10:21:52.303Z,6.21
2022-12-03T10:24:20.402Z,6.49
2022-12-03T10:26:48.711Z,6.28
2022-12-03T10:29:25.805Z,6.24
2022-12-03T10:32:11.752Z,6.00
2022-12-03T10:34:40.851Z,6.31
2022-12-03T10:37:08.959Z,6.56
2022-12-03T10:39:55.749Z,6.22
2022-12-03T10:42:24.318Z,6.28
2022-12-03T10:45:18.929Z,6.66
2022-12-03T10:48:25.370Z,6.26
2022-12-03T10:51:01.917Z,5.61
2022-12-03T10:53:30.270Z,6.22
2022-12-03T10:56:01.868Z,5.96
2022-12-03T10:58:35.229Z,6.17
2022-12-03T11:01:06.724Z,6.18
2022-12-03T11:03:35.390Z,6.39
2022-12-03T11:06:02.846Z,6.37
2022-12-03T11:08:34.554Z,5.71
2022-12-03T11:11:03.745Z,6.03
2022-12-03T11:13:48.330Z,6.29
2022-12-03T11:16:40.714Z,5.78
2022-12-03T11:19:13.250Z,5.94
2022-12-03T11:22:09.916Z,6.27
2022-12-03T11:24:38.600Z,6.44
2022-12-03T11:27:06.865Z,5.57
2022-12-03T11:29:47.415Z,6.15
2022-12-03T11:32:38.909Z,6.60
2022-12-03T11:35:12.970Z,6.28
2022-12-03T11:37:39.878Z,6.19
2022-12-03T11:40:18.545Z,5.39
2022-12-03T11:42:47.972Z,6.34
2022-12-03T11:45:35.245Z,6.03
2022-12-03T11:48:12.642Z,5.46
2022-12-03T11:50:43.085Z,5.61
2022-12-03T11:53:20.031Z,6.37
2022-12-03T11:55:52.188Z,6.20
2022-12-03T11:58:30.298Z,6.12
2022-12-03T12:00:59.283Z,6.48
2022-12-03T12:03:34.071Z,6.01
2022-12-03T12:06:01.376Z,6.15
2022-12-03T12:08:28.018Z,5.98
2022-12-03T12:10:55.067Z,6.44
2022-12-03T12:13:30.474Z,6.11
2022-12-03T12:16:02.311Z,6.26
2022-12-03T12:18:43.018Z,5.84
2022-12-03T12:21:47.609Z,6.21
2022-12-03T12:24:40.686Z,6.26
2022-12-03T12:27:10.224Z,5.83
2022-12-03T12:29:38.503Z,6.22
2022-12-03T12:32:12.464Z,5.86
2022-12-03T12:34:40.780Z,6.33
2022-12-03T12:37:22.156Z,6.45
2022-12-03T12:39:52.631Z,6.21
2022-12-03T12:42:33.115Z,5.92
2022-12-03T12:45:14.960Z,6.07
2022-12-03T12:48:16.277Z,5.78
2022-12-03T12:50:45.676Z,6.45
2022-12-03T12:53:22.823Z,6.68
2022-12-03T12:55:56.079Z,6.65
2022-12-03T12:58:23.299Z,5.95
2022-12-03T13:00:58.963Z,6.29
2022-12-03T13:03:32.978Z,6.77
2022-12-03T13:05:59.810Z,6.83
2022-12-03T13:08:38.472Z,6.31
2022-12-03T13:11:06.483Z,6.24
2022-12-03T13:13:43.965Z,6.62
2022-12-03T13:16:26.425Z,5.86
2022-12-03T13:19:00.999Z,6.02
2022-12-03T13:21:43.953Z,5.62
2022-12-03T13:24:36.860Z,6.24
2022-12-03T13:27:29.622Z,6.17
2022-12-03T13:30:00.782Z,6.69
2022-12-03T13:32:36.575Z,6.50
2022-12-03T13:35:11.861Z,6.52
2022-12-03T13:37:38.844Z,6.52
2022-12-03T13:40:27.603Z,6.31
2022-12-03T13:42:55.117Z,6.22
2022-12-03T13:45:24.654Z,6.05
2022-12-03T13:47:57.813Z,6.21
2022-12-03T13:50:46.186Z,6.50
2022-12-03T13:53:26.742Z,6.53
2022-12-03T13:56:15.442Z,6.64
2022-12-03T13:58:42.145Z,6.36
2022-12-03T14:01:08.889Z,5.91
2022-12-03T14:03:35.526Z,6.25
2022-12-03T14:06:02.176Z,6.57
2022-12-03T14:08:29.788Z,6.39
2022-12-03T14:11:00.432Z,6.55
2022-12-03T14:13:28.032Z,6.58
2022-12-03T14:15:55.273Z,5.96
2022-12-03T14:18:22.272Z,6.39
2022-12-03T14:20:48.930Z,6.32
2022-12-03T14:23:15.863Z,6.43
2022-12-03T14:25:44.015Z,6.28
2022-12-03T14:28:10.939Z,6.40
2022-12-03T14:30:37.749Z,6.03
2022-12-03T14:33:04.447Z,6.58
2022-12-03T14:35:31.091Z,6.44
2022-12-03T14:37:57.762Z,6.21
2022-12-03T14:40:24.553Z,6.09
2022-12-03T14:42:51.182Z,6.50
2022-12-03T14:45:17.828Z,5.69
2022-12-03T14:47:44.477Z,6.04
2022-12-03T14:50:14.308Z,5.91
2022-12-03T14:52:41.262Z,5.80
2022-12-03T14:55:08.409Z,6.22
2022-12-03T14:57:36.766Z,6.26
2022-12-03T15:00:05.528Z,5.77
2022-12-03T15:02:32.432Z,5.89
2022-12-03T15:04:59.189Z,5.80
2022-12-03T15:07:26.126Z,5.17
2022-12-03T15:09:53.156Z,5.90
2022-12-03T15:12:19.901Z,6.24
2022-12-03T15:14:47.484Z,5.45
2022-12-03T15:17:14.240Z,6.02
2022-12-03T15:19:40.968Z,6.01
2022-12-03T15:22:07.768Z,5.61
2022-12-03T15:24:34.448Z,5.94
2022-12-03T15:27:01.088Z,6.16
2022-12-03T15:29:43.140Z,5.50
2022-12-03T15:32:10.156Z,5.98
2022-12-03T15:34:36.958Z,6.01
2022-12-03T15:37:04.993Z,5.86
2022-12-03T15:39:32.954Z,6.25
2022-12-03T15:41:59.584Z,6.13
2022-12-03T15:44:26.196Z,5.67
2022-12-03T15:46:52.765Z,5.74
2022-12-03T15:49:19.961Z,6.08
2022-12-03T15:51:46.534Z,5.77
2022-12-03T15:54:15.481Z,6.06
2022-12-03T15:56:42.218Z,5.76
2022-12-03T15:59:09.357Z,5.92
2022-12-03T16:01:36.226Z,6.03
2022-12-03T16:04:02.889Z,5.96
2022-12-03T16:06:29.456Z,6.37
2022-12-03T16:08:56.146Z,6.20
2022-12-03T16:11:22.936Z,6.28
2022-12-03T16:13:50.040Z,6.41
2022-12-03T16:16:16.719Z,6.09
2022-12-03T16:18:43.486Z,6.36
2022-12-03T16:21:12.884Z,6.75
2022-12-03T16:23:39.878Z,6.15
2022-12-03T16:26:06.623Z,6.11
2022-12-03T16:28:35.607Z,5.92
2022-12-03T16:31:02.514Z,6.02
2022-12-03T16:33:29.133Z,6.14
2022-12-03T16:35:58.140Z,6.51
2022-12-03T16:38:24.761Z,6.39
2022-12-03T16:40:51.684Z,6.23
2022-12-03T16:43:21.620Z,6.20
2022-12-03T16:46:02.097Z,6.17
2022-12-03T16:48:30.126Z,6.05
2022-12-03T16:50:57.279Z,5.78
2022-12-03T16:53:23.859Z,6.00
2022-12-03T16:55:52.427Z,5.98
2022-12-03T16:58:21.314Z,6.23
2022-12-03T17:00:53.207Z,6.04
2022-12-03T17:03:29.000Z,5.94
2022-12-03T17:06:08.571Z,5.54
2022-12-03T17:08:41.043Z,5.64
2022-12-03T17:11:09.843Z,5.76
2022-12-03T17:13:36.426Z,5.63
2022-12-03T17:16:03.453Z,5.90
2022-12-03T17:18:37.210Z,5.89
2022-12-03T17:21:06.774Z,6.25
2022-12-03T17:23:33.358Z,6.11
2022-12-03T17:25:59.949Z,6.21
2022-12-03T17:28:28.119Z,5.89
2022-12-03T17:30:57.121Z,6.05
2022-12-03T17:33:29.964Z,6.29
2022-12-03T17:35:57.262Z,6.16
2022-12-03T17:38:27.431Z,5.98
2022-12-03T17:40:54.027Z,6.20
2022-12-03T17:43:20.586Z,6.06
2022-12-03T17:45:47.245Z,5.92
2022-12-03T17:48:14.319Z,5.94
2022-12-03T17:50:41.152Z,5.79
2022-12-03T17:53:10.361Z,5.67
2022-12-03T17:55:44.246Z,5.77
2022-12-03T17:58:15.267Z,6.74
2022-12-03T18:00:42.381Z,5.55
2022-12-03T18:03:09.259Z,5.57
2022-12-03T18:05:36.288Z,5.36
2022-12-03T18:08:03.428Z,6.07
2022-12-03T18:10:30.156Z,5.91
2022-12-03T18:13:01.440Z,6.26
2022-12-03T18:15:28.839Z,6.15
2022-12-03T18:17:59.203Z,5.44
2022-12-03T18:20:26.415Z,5.63
2022-12-03T18:22:53.495Z,5.81
2022-12-03T18:25:20.445Z,5.97
2022-12-03T18:27:47.528Z,5.94
2022-12-03T18:30:14.347Z,6.16
2022-12-03T18:32:41.312Z,5.57
2022-12-03T18:35:09.251Z,5.15
2022-12-03T18:37:42.678Z,5.62
2022-12-03T18:40:18.594Z,5.60
2022-12-03T18:42:45.377Z,5.34
2022-12-03T18:45:15.058Z,5.94
2022-12-03T18:47:45.240Z,5.70
2022-12-03T18:50:12.950Z,5.77
2022-12-03T18:52:43.140Z,5.45
2022-12-03T18:55:23.768Z,5.60
2022-12-03T18:57:52.540Z,6.08
2022-12-03T19:00:20.253Z,6.42
2022-12-03T19:03:03.750Z,6.18
2022-12-03T19:05:35.406Z,5.85
2022-12-03T19:08:17.299Z,5.54
2022-12-03T19:10:44.660Z,5.22
2022-12-03T19:13:17.835Z,5.88
2022-12-03T19:15:46.386Z,5.94
2022-12-03T19:18:14.984Z,5.51
2022-12-03T19:20:43.124Z,6.05
2022-12-03T19:23:10.313Z,5.28
2022-12-03T19:25:37.207Z,5.18
2022-12-03T19:28:05.961Z,4.92
2022-12-03T19:30:32.831Z,4.80
2022-12-03T19:32:59.597Z,4.98
2022-12-03T19:35:26.397Z,5.33
2022-12-03T19:37:57.298Z,5.44
2022-12-03T19:40:24.116Z,5.44
2022-12-03T19:42:50.950Z,5.28
2022-12-03T19:45:17.638Z,5.16
2022-12-03T19:47:45.084Z,5.54
2022-12-03T19:50:14.758Z,5.46
2022-12-03T19:52:44.870Z,5.22
2022-12-03T19:55:13.617Z,5.30
2022-12-03T19:57:40.451Z,4.45
2022-12-03T20:00:08.015Z,4.13
2022-12-03T20:02:39.193Z,5.08
2022-12-03T20:05:06.309Z,5.14
2022-12-03T20:07:33.098Z,5.12
2022-12-03T20:10:00.856Z,5.34
2022-12-03T20:12:28.012Z,5.28
2022-12-03T20:14:55.087Z,4.91
2022-12-03T20:17:21.941Z,4.40
2022-12-03T20:19:48.953Z,4.66
2022-12-03T20:22:16.139Z,5.32
2022-12-03T20:24:43.166Z,4.74
2022-12-03T20:27:09.963Z,5.08
2022-12-03T20:29:36.870Z,4.79
2022-12-03T20:32:05.029Z,4.87
2022-12-03T20:34:34.146Z,4.99
2022-12-03T20:37:03.543Z,5.26
2022-12-03T20:39:30.325Z,5.36
2022-12-03T20:41:57.119Z,5.27
2022-12-03T20:44:24.419Z,4.79
2022-12-03T20:46:51.158Z,4.35
2022-12-03T20:49:18.170Z,4.53
2022-12-03T20:51:45.488Z,5.33
2022-12-03T20:54:12.335Z,4.80
2022-12-03T20:56:42.281Z,4.55
2022-12-03T20:59:13.107Z,3.87
2022-12-03T21:01:40.942Z,4.05
2022-12-03T21:04:09.062Z,4.31
2022-12-03T21:06:37.590Z,4.59
2022-12-03T21:09:09.031Z,4.36
2022-12-03T21:11:36.632Z,4.35
2022-12-03T21:14:04.350Z,4.67
2022-12-03T21:19:22.920Z,4.91
2022-12-03T21:21:50.103Z,4.93
2022-12-03T21:24:16.975Z,5.21
2022-12-03T21:26:44.012Z,4.89
2022-12-03T21:29:10.982Z,4.35
2022-12-03T21:31:39.795Z,4.43
2022-12-03T21:34:08.811Z,4.60
2022-12-03T21:36:36.106Z,4.92
2022-12-03T21:39:03.207Z,4.54
2022-12-03T21:41:30.194Z,4.26
2022-12-03T21:43:57.130Z,4.72
2022-12-03T21:47:12.622Z,4.25
2022-12-03T21:49:11.127Z,4.27
2022-12-03T21:51:38.156Z,4.36
2022-12-03T21:54:05.234Z,4.74
2022-12-03T21:56:33.178Z,4.24
2022-12-03T21:59:00.670Z,3.97
2022-12-03T22:01:27.838Z,4.48
2022-12-03T22:03:55.110Z,4.70
2022-12-03T22:06:22.766Z,4.52
2022-12-03T22:08:50.173Z,4.48
2022-12-03T22:11:20.370Z,4.58
2022-12-03T22:13:47.514Z,4.34
2022-12-03T22:16:17.651Z,4.54
2022-12-03T22:18:45.058Z,4.12
2022-12-03T22:21:15.738Z,4.85
2022-12-03T22:23:43.116Z,4.61
2022-12-03T22:26:12.921Z,4.70
2022-12-03T22:28:43.662Z,4.78
2022-12-03T22:31:11.180Z,3.97
2022-12-03T22:33:38.777Z,4.53
2022-12-03T22:36:08.581Z,4.72
2022-12-03T22:38:35.904Z,4.88
2022-12-03T22:41:10.488Z,4.56
2022-12-03T22:43:37.600Z,3.75
2022-12-03T22:46:06.673Z,3.88
2022-12-03T22:48:34.416Z,4.44
2022-12-03T22:51:01.131Z,4.28
2022-12-03T22:53:27.989Z,4.46
2022-12-03T22:55:56.659Z,4.33
2022-12-03T22:58:24.313Z,4.18
2022-12-03T23:00:52.341Z,4.32
2022-12-03T23:03:19.746Z,4.57
2022-12-03T23:05:46.925Z,4.58
2022-12-03T23:08:16.798Z,4.66
2022-12-03T23:10:46.560Z,4.55
2022-12-03T23:13:13.989Z,4.31
2022-12-03T23:15:46.666Z,4.61
2022-12-03T23:18:13.981Z,4.22
2022-12-03T23:20:50.863Z,4.54
2022-12-03T23:23:19.425Z,4.07
2022-12-03T23:26:16.439Z,4.13
2022-12-03T23:28:45.422Z,4.23
2022-12-03T23:31:26.931Z,4.61
2022-12-03T23:33:54.490Z,4.72
2022-12-03T23:36:23.282Z,4.58
2022-12-03T23:38:50.203Z,4.59
2022-12-03T23:41:19.718Z,4.47
2022-12-03T23:43:46.848Z,4.57
2022-12-03T23:46:16.372Z,4.32
2022-12-03T23:48:43.916Z,4.59
2022-12-03T23:51:13.197Z,4.49
2022-12-03T23:53:41.150Z,4.04
2022-12-03T23:56:13.810Z,4.40
2022-12-03T23:58:40.869Z,4.55
